sensor_id;sensor_type;location;lat;lon;timestamp;pressure;altitude;pressure_sealevel;temperature
63689;BMP280;54895;40.928;14.480;2023-05-19T00:00:49;100762.03;;;20.39
63689;BMP280;54895;40.928;14.480;2023-05-19T00:03:16;100734.63;;;20.33
63689;BMP280;54895;40.928;14.480;2023-05-19T00:05:47;100723.72;;;20.31
63689;BMP280;54895;40.928;14.480;2023-05-19T00:08:17;100721.41;;;20.37
63689;BMP280;54895;40.928;14.480;2023-05-19T00:10:45;100816.59;;;20.89
63689;BMP280;54895;40.928;14.480;2023-05-19T00:13:11;100814.00;;;20.79
63689;BMP280;54895;40.928;14.480;2023-05-19T00:15:38;100824.34;;;20.83
63689;BMP280;54895;40.928;14.480;2023-05-19T00:18:05;100792.16;;;20.45
63689;BMP280;54895;40.928;14.480;2023-05-19T00:20:34;100738.88;;;20.15
63689;BMP280;54895;40.928;14.480;2023-05-19T00:23:00;100634.69;;;19.49
63689;BMP280;54895;40.928;14.480;2023-05-19T00:25:27;100616.41;;;19.38
63689;BMP280;54895;40.928;14.480;2023-05-19T00:27:56;100613.19;;;19.30
63689;BMP280;54895;40.928;14.480;2023-05-19T00:30:25;100644.81;;;19.39
63689;BMP280;54895;40.928;14.480;2023-05-19T00:32:52;100707.88;;;19.34
63689;BMP280;54895;40.928;14.480;2023-05-19T00:35:19;100696.53;;;19.36
63689;BMP280;54895;40.928;14.480;2023-05-19T00:37:46;100744.13;;;19.71
63689;BMP280;54895;40.928;14.480;2023-05-19T00:40:12;100794.78;;;19.82
63689;BMP280;54895;40.928;14.480;2023-05-19T00:42:40;100762.75;;;19.67
63689;BMP280;54895;40.928;14.480;2023-05-19T00:45:09;100759.56;;;19.80
63689;BMP280;54895;40.928;14.480;2023-05-19T00:47:35;100773.13;;;20.01
63689;BMP280;54895;40.928;14.480;2023-05-19T00:50:02;100792.03;;;20.01
63689;BMP280;54895;40.928;14.480;2023-05-19T00:52:29;100769.25;;;19.74
63689;BMP280;54895;40.928;14.480;2023-05-19T00:54:56;100748.25;;;19.72
63689;BMP280;54895;40.928;14.480;2023-05-19T00:57:23;100759.28;;;19.76
63689;BMP280;54895;40.928;14.480;2023-05-19T00:59:49;100761.22;;;19.85
63689;BMP280;54895;40.928;14.480;2023-05-19T01:02:16;100735.19;;;19.90
63689;BMP280;54895;40.928;14.480;2023-05-19T01:04:43;100757.81;;;20.15
63689;BMP280;54895;40.928;14.480;2023-05-19T01:07:10;100759.59;;;20.01
63689;BMP280;54895;40.928;14.480;2023-05-19T01:09:38;100740.84;;;19.94
63689;BMP280;54895;40.928;14.480;2023-05-19T01:12:08;100743.00;;;19.95
63689;BMP280;54895;40.928;14.480;2023-05-19T01:14:34;100737.09;;;20.08
63689;BMP280;54895;40.928;14.480;2023-05-19T01:17:28;100764.06;;;20.18
63689;BMP280;54895;40.928;14.480;2023-05-19T01:20:21;100786.63;;;20.22
63689;BMP280;54895;40.928;14.480;2023-05-19T01:25:44;100769.03;;;19.91
63689;BMP280;54895;40.928;14.480;2023-05-19T01:30:59;100832.22;;;20.58
63689;BMP280;54895;40.928;14.480;2023-05-19T01:33:28;100829.50;;;20.58
63689;BMP280;54895;40.928;14.480;2023-05-19T01:35:57;100839.66;;;20.48
63689;BMP280;54895;40.928;14.480;2023-05-19T01:38:24;100811.09;;;20.24
63689;BMP280;54895;40.928;14.480;2023-05-19T01:40:54;100826.91;;;20.39
63689;BMP280;54895;40.928;14.480;2023-05-19T01:43:24;100826.91;;;20.39
63689;BMP280;54895;40.928;14.480;2023-05-19T01:45:52;100831.78;;;20.31
63689;BMP280;54895;40.928;14.480;2023-05-19T01:48:19;100821.00;;;20.31
63689;BMP280;54895;40.928;14.480;2023-05-19T01:50:46;100814.78;;;20.19
63689;BMP280;54895;40.928;14.480;2023-05-19T01:53:13;100789.66;;;19.86
63689;BMP280;54895;40.928;14.480;2023-05-19T01:55:52;100780.06;;;19.64
63689;BMP280;54895;40.928;14.480;2023-05-19T01:58:45;100773.25;;;19.63
63689;BMP280;54895;40.928;14.480;2023-05-19T02:01:40;100759.56;;;19.80
63689;BMP280;54895;40.928;14.480;2023-05-19T02:07:07;100738.31;;;19.65
63689;BMP280;54895;40.928;14.480;2023-05-19T02:12:27;100727.88;;;19.50
63689;BMP280;54895;40.928;14.480;2023-05-19T02:15:12;100759.91;;;19.65
63689;BMP280;54895;40.928;14.480;2023-05-19T02:17:41;100731.44;;;19.34
63689;BMP280;54895;40.928;14.480;2023-05-19T02:20:09;100760.72;;;19.77
63689;BMP280;54895;40.928;14.480;2023-05-19T02:22:37;100780.00;;;19.83
63689;BMP280;54895;40.928;14.480;2023-05-19T02:25:04;100785.22;;;19.91
63689;BMP280;54895;40.928;14.480;2023-05-19T02:27:33;100774.13;;;19.96
63689;BMP280;54895;40.928;14.480;2023-05-19T02:30:05;100772.44;;;19.91
63689;BMP280;54895;40.928;14.480;2023-05-19T02:32:33;100775.84;;;19.92
63689;BMP280;54895;40.928;14.480;2023-05-19T02:35:00;100773.38;;;20.05
63689;BMP280;54895;40.928;14.480;2023-05-19T02:37:26;100781.59;;;20.07
63689;BMP280;54895;40.928;14.480;2023-05-19T02:39:57;100768.72;;;19.96
63689;BMP280;54895;40.928;14.480;2023-05-19T02:42:24;100733.19;;;19.90
63689;BMP280;54895;40.928;14.480;2023-05-19T02:44:52;100742.88;;;19.93
63689;BMP280;54895;40.928;14.480;2023-05-19T02:47:22;100726.06;;;19.95
63689;BMP280;54895;40.928;14.480;2023-05-19T02:49:49;100736.94;;;19.85
63689;BMP280;54895;40.928;14.480;2023-05-19T02:52:15;100711.81;;;19.73
63689;BMP280;54895;40.928;14.480;2023-05-19T02:54:43;100692.56;;;19.67
63689;BMP280;54895;40.928;14.480;2023-05-19T02:57:10;100688.56;;;19.68
63689;BMP280;54895;40.928;14.480;2023-05-19T02:59:36;100671.31;;;19.52
63689;BMP280;54895;40.928;14.480;2023-05-19T03:02:03;100682.56;;;19.39
63689;BMP280;54895;40.928;14.480;2023-05-19T03:04:30;100665.59;;;19.27
63689;BMP280;54895;40.928;14.480;2023-05-19T03:06:56;100655.28;;;19.14
63689;BMP280;54895;40.928;14.480;2023-05-19T03:09:23;100639.06;;;19.24
63689;BMP280;54895;40.928;14.480;2023-05-19T03:11:50;100639.03;;;19.33
63689;BMP280;54895;40.928;14.480;2023-05-19T03:14:16;100651.59;;;19.50
63689;BMP280;54895;40.928;14.480;2023-05-19T03:16:43;100660.91;;;19.58
63689;BMP280;54895;40.928;14.480;2023-05-19T03:19:10;100643.00;;;19.32
63689;BMP280;54895;40.928;14.480;2023-05-19T03:21:37;100637.34;;;19.28
63689;BMP280;54895;40.928;14.480;2023-05-19T03:24:04;100638.00;;;19.38
63689;BMP280;54895;40.928;14.480;2023-05-19T03:26:31;100618.25;;;19.05
63689;BMP280;54895;40.928;14.480;2023-05-19T03:28:57;100610.88;;;19.36
63689;BMP280;54895;40.928;14.480;2023-05-19T03:31:24;100632.59;;;19.38
63689;BMP280;54895;40.928;14.480;2023-05-19T03:33:52;100654.34;;;19.40
63689;BMP280;54895;40.928;14.480;2023-05-19T03:36:20;100670.88;;;19.56
63689;BMP280;54895;40.928;14.480;2023-05-19T03:38:47;100695.84;;;19.56
63689;BMP280;54895;40.928;14.480;2023-05-19T03:41:14;100741.75;;;20.17
63689;BMP280;54895;40.928;14.480;2023-05-19T03:43:41;100776.72;;;20.15
63689;BMP280;54895;40.928;14.480;2023-05-19T03:46:09;100754.44;;;19.84
63689;BMP280;54895;40.928;14.480;2023-05-19T03:48:49;100757.44;;;19.39
63689;BMP280;54895;40.928;14.480;2023-05-19T03:51:15;100731.19;;;19.30
63689;BMP280;54895;40.928;14.480;2023-05-19T03:53:44;100731.53;;;19.55
63689;BMP280;54895;40.928;14.480;2023-05-19T03:56:10;100722.47;;;19.50
63689;BMP280;54895;40.928;14.480;2023-05-19T03:58:39;100711.59;;;19.29
63689;BMP280;54895;40.928;14.480;2023-05-19T04:01:10;100703.16;;;19.44
63689;BMP280;54895;40.928;14.480;2023-05-19T04:03:37;100701.19;;;19.35
63689;BMP280;54895;40.928;14.480;2023-05-19T04:06:04;100701.56;;;19.20
63689;BMP280;54895;40.928;14.480;2023-05-19T04:08:31;100747.69;;;19.64
63689;BMP280;54895;40.928;14.480;2023-05-19T04:11:02;100758.13;;;19.79
63689;BMP280;54895;40.928;14.480;2023-05-19T04:13:32;100771.22;;;19.73
63689;BMP280;54895;40.928;14.480;2023-05-19T04:15:59;100785.41;;;19.83
63689;BMP280;54895;40.928;14.480;2023-05-19T04:18:26;100799.28;;;19.89
63689;BMP280;54895;40.928;14.480;2023-05-19T04:20:53;100786.38;;;19.57
63689;BMP280;54895;40.928;14.480;2023-05-19T04:23:19;100776.81;;;19.66
63689;BMP280;54895;40.928;14.480;2023-05-19T04:25:46;100793.03;;;19.96
63689;BMP280;54895;40.928;14.480;2023-05-19T04:28:14;100822.25;;;20.09
63689;BMP280;54895;40.928;14.480;2023-05-19T04:30:41;100818.94;;;19.80
63689;BMP280;54895;40.928;14.480;2023-05-19T04:33:08;100805.41;;;19.59
63689;BMP280;54895;40.928;14.480;2023-05-19T04:35:35;100847.94;;;20.20
63689;BMP280;54895;40.928;14.480;2023-05-19T04:38:04;100832.34;;;20.09
63689;BMP280;54895;40.928;14.480;2023-05-19T04:40:32;100855.72;;;20.25
63689;BMP280;54895;40.928;14.480;2023-05-19T04:42:59;100845.44;;;20.03
63689;BMP280;54895;40.928;14.480;2023-05-19T04:45:28;100849.44;;;20.32
63689;BMP280;54895;40.928;14.480;2023-05-19T04:47:59;100869.63;;;20.31
63689;BMP280;54895;40.928;14.480;2023-05-19T04:50:25;100874.97;;;20.41
63689;BMP280;54895;40.928;14.480;2023-05-19T04:52:54;100881.78;;;20.51
63689;BMP280;54895;40.928;14.480;2023-05-19T04:55:21;100891.66;;;20.37
63689;BMP280;54895;40.928;14.480;2023-05-19T04:57:49;100868.94;;;20.31
63689;BMP280;54895;40.928;14.480;2023-05-19T05:00:16;100866.44;;;20.44
63689;BMP280;54895;40.928;14.480;2023-05-19T05:02:57;100865.88;;;20.15
63689;BMP280;54895;40.928;14.480;2023-05-19T05:05:26;100854.72;;;19.90
63689;BMP280;54895;40.928;14.480;2023-05-19T05:07:52;100840.38;;;19.97
63689;BMP280;54895;40.928;14.480;2023-05-19T05:10:21;100854.03;;;20.20
63689;BMP280;54895;40.928;14.480;2023-05-19T05:12:48;100810.38;;;19.93
63689;BMP280;54895;40.928;14.480;2023-05-19T05:15:15;100821.00;;;20.31
63689;BMP280;54895;40.928;14.480;2023-05-19T05:17:48;100838.25;;;20.68
63689;BMP280;54895;40.928;14.480;2023-05-19T05:20:15;100836.69;;;20.65
63689;BMP280;54895;40.928;14.480;2023-05-19T05:22:42;100840.16;;;20.77
63689;BMP280;54895;40.928;14.480;2023-05-19T05:25:09;100825.47;;;20.80
63689;BMP280;54895;40.928;14.480;2023-05-19T05:27:37;100851.72;;;21.10
63689;BMP280;54895;40.928;14.480;2023-05-19T05:30:06;100843.13;;;20.81
63689;BMP280;54895;40.928;14.480;2023-05-19T05:32:32;100868.72;;;21.22
63689;BMP280;54895;40.928;14.480;2023-05-19T05:35:01;100887.69;;;21.33
63689;BMP280;54895;40.928;14.480;2023-05-19T05:37:30;100916.75;;;21.77
63689;BMP280;54895;40.928;14.480;2023-05-19T05:39:57;100934.19;;;21.97
63689;BMP280;54895;40.928;14.480;2023-05-19T05:42:23;100955.88;;;21.97
63689;BMP280;54895;40.928;14.480;2023-05-19T05:44:50;100946.09;;;21.92
63689;BMP280;54895;40.928;14.480;2023-05-19T05:47:17;100953.41;;;22.23
63689;BMP280;54895;40.928;14.480;2023-05-19T05:49:45;100939.97;;;22.26
63689;BMP280;54895;40.928;14.480;2023-05-19T05:52:14;100953.41;;;22.01
63689;BMP280;54895;40.928;14.480;2023-05-19T05:54:45;100934.56;;;22.14
63689;BMP280;54895;40.928;14.480;2023-05-19T05:57:15;100945.16;;;22.44
63689;BMP280;54895;40.928;14.480;2023-05-19T05:59:43;100959.75;;;22.62
63689;BMP280;54895;40.928;14.480;2023-05-19T06:02:12;100982.53;;;23.05
63689;BMP280;54895;40.928;14.480;2023-05-19T06:04:39;100996.38;;;22.86
63689;BMP280;54895;40.928;14.480;2023-05-19T06:07:06;101001.25;;;22.65
63689;BMP280;54895;40.928;14.480;2023-05-19T06:09:36;100985.53;;;22.86
63689;BMP280;54895;40.928;14.480;2023-05-19T06:12:04;101015.50;;;22.88
63689;BMP280;54895;40.928;14.480;2023-05-19T06:14:36;101012.06;;;22.88
63689;BMP280;54895;40.928;14.480;2023-05-19T06:17:17;101035.44;;;23.04
63689;BMP280;54895;40.928;14.480;2023-05-19T06:19:43;101047.84;;;23.32
63689;BMP280;54895;40.928;14.480;2023-05-19T06:22:10;101062.91;;;23.47
63689;BMP280;54895;40.928;14.480;2023-05-19T06:24:37;101079.69;;;23.43
63689;BMP280;54895;40.928;14.480;2023-05-19T06:27:04;101072.63;;;23.38
63689;BMP280;54895;40.928;14.480;2023-05-19T06:29:30;101073.44;;;23.66
63689;BMP280;54895;40.928;14.480;2023-05-19T06:32:01;101102.47;;;23.74
63689;BMP280;54895;40.928;14.480;2023-05-19T06:34:29;101107.22;;;23.74
63689;BMP280;54895;40.928;14.480;2023-05-19T06:36:56;101109.72;;;23.95
63689;BMP280;54895;40.928;14.480;2023-05-19T06:39:24;101107.88;;;24.24
63689;BMP280;54895;40.928;14.480;2023-05-19T06:41:50;101118.47;;;24.32
63689;BMP280;54895;40.928;14.480;2023-05-19T06:44:37;101118.72;;;24.11
63689;BMP280;54895;40.928;14.480;2023-05-19T06:47:04;101120.88;;;24.26
63689;BMP280;54895;40.928;14.480;2023-05-19T06:49:30;101128.28;;;24.12
63689;BMP280;54895;40.928;14.480;2023-05-19T06:51:57;101136.44;;;24.12
63689;BMP280;54895;40.928;14.480;2023-05-19T06:54:24;101127.56;;;24.36
63689;BMP280;54895;40.928;14.480;2023-05-19T06:56:50;101120.53;;;24.45
63689;BMP280;54895;40.928;14.480;2023-05-19T06:59:17;101123.84;;;24.57
63689;BMP280;54895;40.928;14.480;2023-05-19T07:01:48;101119.53;;;24.52
63689;BMP280;54895;40.928;14.480;2023-05-19T07:04:16;101119.13;;;24.57
63689;BMP280;54895;40.928;14.480;2023-05-19T07:06:43;101124.16;;;24.63
63689;BMP280;54895;40.928;14.480;2023-05-19T07:09:10;101122.44;;;24.83
63689;BMP280;54895;40.928;14.480;2023-05-19T07:11:38;101127.78;;;24.94
63689;BMP280;54895;40.928;14.480;2023-05-19T07:14:05;101126.09;;;25.29
63689;BMP280;54895;40.928;14.480;2023-05-19T07:16:31;101120.00;;;25.15
63689;BMP280;54895;40.928;14.480;2023-05-19T07:18:58;101120.09;;;25.17
63689;BMP280;54895;40.928;14.480;2023-05-19T07:21:25;101123.03;;;25.08
63689;BMP280;54895;40.928;14.480;2023-05-19T07:23:51;101117.78;;;25.25
63689;BMP280;54895;40.928;14.480;2023-05-19T07:26:18;101125.66;;;25.06
63689;BMP280;54895;40.928;14.480;2023-05-19T07:28:44;101113.22;;;25.16
63689;BMP280;54895;40.928;14.480;2023-05-19T07:31:11;101128.72;;;25.70
63689;BMP280;54895;40.928;14.480;2023-05-19T07:33:38;101116.16;;;25.49
63689;BMP280;54895;40.928;14.480;2023-05-19T07:36:05;101123.50;;;25.60
63689;BMP280;54895;40.928;14.480;2023-05-19T07:38:34;101120.16;;;26.06
63689;BMP280;54895;40.928;14.480;2023-05-19T07:41:01;101116.97;;;26.58
63689;BMP280;54895;40.928;14.480;2023-05-19T07:43:29;101117.09;;;26.29
63689;BMP280;54895;40.928;14.480;2023-05-19T07:45:56;101122.25;;;26.23
63689;BMP280;54895;40.928;14.480;2023-05-19T07:48:22;101128.53;;;26.74
63689;BMP280;54895;40.928;14.480;2023-05-19T07:50:51;101124.94;;;27.02
63689;BMP280;54895;40.928;14.480;2023-05-19T07:53:18;101125.91;;;27.43
63689;BMP280;54895;40.928;14.480;2023-05-19T07:55:45;101126.75;;;27.48
63689;BMP280;54895;40.928;14.480;2023-05-19T07:58:12;101126.69;;;27.46
63689;BMP280;54895;40.928;14.480;2023-05-19T08:00:41;101147.66;;;27.76
63689;BMP280;54895;40.928;14.480;2023-05-19T08:03:08;101134.75;;;27.25
63689;BMP280;54895;40.928;14.480;2023-05-19T08:05:35;101142.09;;;27.38
63689;BMP280;54895;40.928;14.480;2023-05-19T08:08:02;101138.03;;;27.93
63689;BMP280;54895;40.928;14.480;2023-05-19T08:10:28;101129.63;;;28.06
63689;BMP280;54895;40.928;14.480;2023-05-19T08:12:55;101129.78;;;28.30
63689;BMP280;54895;40.928;14.480;2023-05-19T08:15:21;101128.06;;;28.40
63689;BMP280;54895;40.928;14.480;2023-05-19T08:17:48;101127.81;;;28.32
63689;BMP280;54895;40.928;14.480;2023-05-19T08:20:14;101126.28;;;27.19
63689;BMP280;54895;40.928;14.480;2023-05-19T08:22:41;101115.28;;;27.51
63689;BMP280;54895;40.928;14.480;2023-05-19T08:25:08;101111.94;;;27.90
63689;BMP280;54895;40.928;14.480;2023-05-19T08:27:35;101105.22;;;28.12
63689;BMP280;54895;40.928;14.480;2023-05-19T08:30:02;101112.63;;;28.49
63689;BMP280;54895;40.928;14.480;2023-05-19T08:32:28;101115.94;;;28.26
63689;BMP280;54895;40.928;14.480;2023-05-19T08:34:55;101116.69;;;28.09
63689;BMP280;54895;40.928;14.480;2023-05-19T08:37:21;101112.25;;;27.80
63689;BMP280;54895;40.928;14.480;2023-05-19T08:39:48;101104.06;;;27.80
63689;BMP280;54895;40.928;14.480;2023-05-19T08:42:14;101106.00;;;27.58
63689;BMP280;54895;40.928;14.480;2023-05-19T08:44:41;101108.44;;;27.87
63689;BMP280;54895;40.928;14.480;2023-05-19T08:47:09;101122.41;;;27.78
63689;BMP280;54895;40.928;14.480;2023-05-19T08:49:43;101110.69;;;28.12
63689;BMP280;54895;40.928;14.480;2023-05-19T08:55:01;101114.66;;;28.89
63689;BMP280;54895;40.928;14.480;2023-05-19T08:57:30;101109.78;;;28.66
63689;BMP280;54895;40.928;14.480;2023-05-19T08:59:58;101110.78;;;28.55
63689;BMP280;54895;40.928;14.480;2023-05-19T09:02:26;101106.31;;;28.44
63689;BMP280;54895;40.928;14.480;2023-05-19T09:04:53;101108.72;;;28.96
63689;BMP280;54895;40.928;14.480;2023-05-19T09:07:21;101104.56;;;29.63
63689;BMP280;54895;40.928;14.480;2023-05-19T09:09:50;101110.88;;;29.93
63689;BMP280;54895;40.928;14.480;2023-05-19T09:12:17;101103.56;;;29.76
63689;BMP280;54895;40.928;14.480;2023-05-19T09:14:43;101108.19;;;29.47
63689;BMP280;54895;40.928;14.480;2023-05-19T09:17:09;101106.69;;;29.42
63689;BMP280;54895;40.928;14.480;2023-05-19T09:19:41;101082.41;;;29.09
63689;BMP280;54895;40.928;14.480;2023-05-19T09:22:08;101103.19;;;29.39
63689;BMP280;54895;40.928;14.480;2023-05-19T09:24:34;101090.66;;;28.27
63689;BMP280;54895;40.928;14.480;2023-05-19T09:27:02;101080.50;;;28.10
63689;BMP280;54895;40.928;14.480;2023-05-19T09:29:28;101076.16;;;28.63
63689;BMP280;54895;40.928;14.480;2023-05-19T09:31:55;101073.94;;;29.01
63689;BMP280;54895;40.928;14.480;2023-05-19T09:34:26;101065.38;;;29.12
63689;BMP280;54895;40.928;14.480;2023-05-19T09:36:53;101069.09;;;28.37
63689;BMP280;54895;40.928;14.480;2023-05-19T09:39:21;101079.38;;;28.37
63689;BMP280;54895;40.928;14.480;2023-05-19T09:41:55;101067.66;;;28.55
63689;BMP280;54895;40.928;14.480;2023-05-19T09:44:25;101066.06;;;27.88
63689;BMP280;54895;40.928;14.480;2023-05-19T09:46:56;101046.47;;;27.40
63689;BMP280;54895;40.928;14.480;2023-05-19T09:49:25;101065.72;;;27.07
63689;BMP280;54895;40.928;14.480;2023-05-19T09:52:01;101060.31;;;28.19
63689;BMP280;54895;40.928;14.480;2023-05-19T09:54:29;101055.22;;;28.31
63689;BMP280;54895;40.928;14.480;2023-05-19T09:56:57;101053.16;;;28.10
63689;BMP280;54895;40.928;14.480;2023-05-19T09:59:24;101030.94;;;28.41
63689;BMP280;54895;40.928;14.480;2023-05-19T10:01:53;101044.22;;;27.90
63689;BMP280;54895;40.928;14.480;2023-05-19T10:04:21;101039.50;;;28.32
63689;BMP280;54895;40.928;14.480;2023-05-19T10:06:52;101058.50;;;29.35
63689;BMP280;54895;40.928;14.480;2023-05-19T10:09:26;101064.13;;;29.89
63689;BMP280;54895;40.928;14.480;2023-05-19T10:11:57;101061.38;;;28.94
63689;BMP280;54895;40.928;14.480;2023-05-19T10:14:25;101062.22;;;29.68
63689;BMP280;54895;40.928;14.480;2023-05-19T10:16:53;101060.94;;;29.48
63689;BMP280;54895;40.928;14.480;2023-05-19T10:19:21;101068.28;;;28.95
63689;BMP280;54895;40.928;14.480;2023-05-19T10:21:48;101055.53;;;28.82
63689;BMP280;54895;40.928;14.480;2023-05-19T10:24:15;101063.94;;;28.45
63689;BMP280;54895;40.928;14.480;2023-05-19T10:26:45;101062.13;;;29.18
63689;BMP280;54895;40.928;14.480;2023-05-19T10:29:14;101060.38;;;30.02
63689;BMP280;54895;40.928;14.480;2023-05-19T10:31:43;101066.84;;;30.42
63689;BMP280;54895;40.928;14.480;2023-05-19T10:34:41;101065.38;;;30.66
63689;BMP280;54895;40.928;14.480;2023-05-19T10:37:24;101065.00;;;29.70
63689;BMP280;54895;40.928;14.480;2023-05-19T10:39:56;101063.88;;;30.05
63689;BMP280;54895;40.928;14.480;2023-05-19T10:42:28;101055.81;;;29.85
63689;BMP280;54895;40.928;14.480;2023-05-19T10:45:26;101052.19;;;30.32
63689;BMP280;54895;40.928;14.480;2023-05-19T10:47:54;101049.19;;;29.94
63689;BMP280;54895;40.928;14.480;2023-05-19T10:50:21;101055.25;;;30.16
63689;BMP280;54895;40.928;14.480;2023-05-19T10:52:54;101025.16;;;28.74
63689;BMP280;54895;40.928;14.480;2023-05-19T10:55:43;101030.94;;;28.41
63689;BMP280;54895;40.928;14.480;2023-05-19T10:58:10;101024.59;;;28.15
63689;BMP280;54895;40.928;14.480;2023-05-19T11:00:38;101012.53;;;28.65
63689;BMP280;54895;40.928;14.480;2023-05-19T11:03:15;101025.19;;;28.76
63689;BMP280;54895;40.928;14.480;2023-05-19T11:05:43;101025.59;;;28.88
63689;BMP280;54895;40.928;14.480;2023-05-19T11:08:11;101022.47;;;30.52
63689;BMP280;54895;40.928;14.480;2023-05-19T11:10:38;101013.00;;;29.49
63689;BMP280;54895;40.928;14.480;2023-05-19T11:13:04;101007.13;;;29.12
63689;BMP280;54895;40.928;14.480;2023-05-19T11:15:34;100990.72;;;29.14
63689;BMP280;54895;40.928;14.480;2023-05-19T11:18:03;100987.47;;;29.19
63689;BMP280;54895;40.928;14.480;2023-05-19T11:20:30;100978.53;;;29.69
63689;BMP280;54895;40.928;14.480;2023-05-19T11:25:49;100975.28;;;30.02
63689;BMP280;54895;40.928;14.480;2023-05-19T11:28:20;100965.75;;;29.52
63689;BMP280;54895;40.928;14.480;2023-05-19T11:30:53;100960.53;;;29.12
63689;BMP280;54895;40.928;14.480;2023-05-19T11:33:20;100962.75;;;29.95
63689;BMP280;54895;40.928;14.480;2023-05-19T11:35:49;100976.44;;;30.52
63689;BMP280;54895;40.928;14.480;2023-05-19T11:38:19;100972.50;;;30.59
63689;BMP280;54895;40.928;14.480;2023-05-19T11:40:47;100976.63;;;30.60
63689;BMP280;54895;40.928;14.480;2023-05-19T11:43:15;100974.28;;;30.78
63689;BMP280;54895;40.928;14.480;2023-05-19T11:45:44;100971.44;;;31.43
63689;BMP280;54895;40.928;14.480;2023-05-19T11:48:11;100955.81;;;31.16
63689;BMP280;54895;40.928;14.480;2023-05-19T11:50:41;100974.06;;;30.99
63689;BMP280;54895;40.928;14.480;2023-05-19T11:53:12;100982.66;;;30.52
63689;BMP280;54895;40.928;14.480;2023-05-19T11:55:47;100993.50;;;31.46
63689;BMP280;54895;40.928;14.480;2023-05-19T11:58:13;100990.88;;;31.52
63689;BMP280;54895;40.928;14.480;2023-05-19T12:00:42;100996.75;;;31.72
63689;BMP280;54895;40.928;14.480;2023-05-19T12:03:10;100986.19;;;32.45
63689;BMP280;54895;40.928;14.480;2023-05-19T12:05:42;100986.91;;;32.48
63689;BMP280;54895;40.928;14.480;2023-05-19T12:08:10;100995.06;;;32.40
63689;BMP280;54895;40.928;14.480;2023-05-19T12:10:38;100996.84;;;32.67
63689;BMP280;54895;40.928;14.480;2023-05-19T12:13:05;101003.44;;;32.48
63689;BMP280;54895;40.928;14.480;2023-05-19T12:15:34;100993.50;;;31.46
63689;BMP280;54895;40.928;14.480;2023-05-19T12:18:02;100977.00;;;32.29
63689;BMP280;54895;40.928;14.480;2023-05-19T12:20:29;100973.66;;;32.35
63689;BMP280;54895;40.928;14.480;2023-05-19T12:23:01;100990.56;;;32.15
63689;BMP280;54895;40.928;14.480;2023-05-19T12:25:28;100981.09;;;30.44
63689;BMP280;54895;40.928;14.480;2023-05-19T12:27:59;100972.91;;;30.46
63689;BMP280;54895;40.928;14.480;2023-05-19T12:30:29;100979.06;;;30.77
63689;BMP280;54895;40.928;14.480;2023-05-19T12:32:56;100971.06;;;30.56
63689;BMP280;54895;40.928;14.480;2023-05-19T12:35:29;100959.81;;;30.75
63689;BMP280;54895;40.928;14.480;2023-05-19T12:38:05;100959.59;;;30.99
63689;BMP280;54895;40.928;14.480;2023-05-19T12:40:33;100958.59;;;30.22
63689;BMP280;54895;40.928;14.480;2023-05-19T12:43:00;100968.88;;;30.82
63689;BMP280;54895;40.928;14.480;2023-05-19T12:45:26;100965.78;;;30.66
63689;BMP280;54895;40.928;14.480;2023-05-19T12:47:53;100956.22;;;31.77
63689;BMP280;54895;40.928;14.480;2023-05-19T12:50:20;100981.59;;;32.13
63689;BMP280;54895;40.928;14.480;2023-05-19T12:52:48;100970.69;;;32.21
63689;BMP280;54895;40.928;14.480;2023-05-19T12:55:17;100964.16;;;30.55
63689;BMP280;54895;40.928;14.480;2023-05-19T12:57:48;100955.16;;;30.21
63689;BMP280;54895;40.928;14.480;2023-05-19T13:00:19;100965.19;;;29.83
63689;BMP280;54895;40.928;14.480;2023-05-19T13:03:06;100966.78;;;29.92
63689;BMP280;54895;40.928;14.480;2023-05-19T13:05:36;100970.53;;;30.97
63689;BMP280;54895;40.928;14.480;2023-05-19T13:11:19;100971.16;;;30.60
63689;BMP280;54895;40.928;14.480;2023-05-19T13:13:46;100961.88;;;30.77
63689;BMP280;54895;40.928;14.480;2023-05-19T13:16:12;100963.94;;;30.45
63689;BMP280;54895;40.928;14.480;2023-05-19T13:18:38;100941.03;;;29.51
63689;BMP280;54895;40.928;14.480;2023-05-19T13:21:04;100950.34;;;29.40
63689;BMP280;54895;40.928;14.480;2023-05-19T13:23:30;100946.88;;;29.92
63689;BMP280;54895;40.928;14.480;2023-05-19T13:25:57;100935.69;;;29.56
63689;BMP280;54895;40.928;14.480;2023-05-19T13:28:24;100945.06;;;29.73
63689;BMP280;54895;40.928;14.480;2023-05-19T13:30:51;100941.81;;;29.80
63689;BMP280;54895;40.928;14.480;2023-05-19T13:33:17;100933.91;;;29.94
63689;BMP280;54895;40.928;14.480;2023-05-19T13:35:43;100939.38;;;30.22
63689;BMP280;54895;40.928;14.480;2023-05-19T13:38:09;100938.41;;;30.09
63689;BMP280;54895;40.928;14.480;2023-05-19T13:40:36;100944.56;;;30.37
63689;BMP280;54895;40.928;14.480;2023-05-19T13:43:03;100944.09;;;30.80
63689;BMP280;54895;40.928;14.480;2023-05-19T13:45:30;100940.28;;;30.61
63689;BMP280;54895;40.928;14.480;2023-05-19T13:47:56;100929.63;;;31.13
63689;BMP280;54895;40.928;14.480;2023-05-19T13:50:22;100932.88;;;31.39
63689;BMP280;54895;40.928;14.480;2023-05-19T13:52:48;100928.44;;;30.86
63689;BMP280;54895;40.928;14.480;2023-05-19T13:55:15;100925.84;;;30.94
63689;BMP280;54895;40.928;14.480;2023-05-19T13:57:41;100915.56;;;30.97
63689;BMP280;54895;40.928;14.480;2023-05-19T14:00:08;100919.34;;;30.80
63689;BMP280;54895;40.928;14.480;2023-05-19T14:02:39;100910.56;;;29.93
63689;BMP280;54895;40.928;14.480;2023-05-19T14:05:05;100904.25;;;29.59
63689;BMP280;54895;40.928;14.480;2023-05-19T14:07:32;100908.59;;;29.68
63689;BMP280;54895;40.928;14.480;2023-05-19T14:10:00;100908.94;;;29.82
63689;BMP280;54895;40.928;14.480;2023-05-19T14:12:28;100899.66;;;29.95